createdAt,value
2023-01-08T14:15:46.103Z,-3.54
2023-01-08T14:18:13.711Z,-3.70
2023-01-08T14:20:41.729Z,-3.89
2023-01-08T14:23:13.844Z,-4.06
2023-01-08T14:25:41.545Z,-4.19
2023-01-08T14:28:14.662Z,-4.29
2023-01-08T14:30:50.926Z,-4.41
2023-01-08T14:33:32.165Z,-4.54
2023-01-08T14:36:02.304Z,-4.66
2023-01-08T14:38:29.268Z,-4.73
2023-01-08T14:41:06.361Z,-4.79
2023-01-08T14:43:34.742Z,-4.86
2023-01-08T14:46:03.900Z,-4.97
2023-01-08T14:49:23.316Z,-5.07
2023-01-08T14:55:37.555Z,-5.23
2023-01-08T14:58:04.463Z,-5.29
2023-01-08T15:00:31.607Z,-5.34
2023-01-08T15:03:06.173Z,-5.39
2023-01-08T15:05:48.786Z,-5.46
2023-01-08T15:08:24.388Z,-5.56
2023-01-08T15:11:01.925Z,-5.63
2023-01-08T15:13:34.257Z,-5.66
2023-01-08T15:16:25.695Z,-5.71
2023-01-08T15:19:13.167Z,-5.74
2023-01-08T15:21:40.327Z,-5.77
2023-01-08T15:24:07.754Z,-5.83
2023-01-08T15:26:34.770Z,-5.88
2023-01-08T15:29:05.947Z,-5.92
2023-01-08T15:31:39.502Z,-5.97
2023-01-08T15:34:09.566Z,-6.02
2023-01-08T15:36:36.490Z,-6.05
2023-01-08T15:39:04.055Z,-6.08
2023-01-08T15:41:53.857Z,-6.09
2023-01-08T15:44:20.875Z,-6.10
2023-01-08T15:46:47.903Z,-6.14
2023-01-08T15:49:14.733Z,-6.17
2023-01-08T15:51:45.517Z,-6.18
2023-01-08T15:54:12.811Z,-6.19
2023-01-08T15:56:39.648Z,-6.20
2023-01-08T15:59:06.766Z,-6.22
2023-01-08T16:01:33.913Z,-6.27
2023-01-08T16:04:00.857Z,-6.32
2023-01-08T16:06:27.700Z,-6.37
2023-01-08T16:08:58.040Z,-6.40
2023-01-08T16:11:24.846Z,-6.41
2023-01-08T16:13:51.813Z,-6.44
2023-01-08T16:16:19.465Z,-6.48
2023-01-08T16:18:46.506Z,-6.53
2023-01-08T16:21:13.783Z,-6.57
2023-01-08T16:23:40.886Z,-6.60
2023-01-08T16:26:11.988Z,-6.64
2023-01-08T16:28:39.083Z,-6.66
2023-01-08T16:31:06.808Z,-6.69
2023-01-08T16:33:33.818Z,-6.71
2023-01-08T16:36:05.970Z,-6.76
2023-01-08T16:38:33.622Z,-6.81
2023-01-08T16:41:00.828Z,-6.85
2023-01-08T16:43:28.995Z,-6.89
2023-01-08T16:45:56.193Z,-6.93
2023-01-08T16:48:23.305Z,-6.95
2023-01-08T16:50:50.294Z,-6.96
2023-01-08T16:53:21.952Z,-6.99
2023-01-08T16:55:48.809Z,-7.02
2023-01-08T16:58:15.605Z,-7.06
2023-01-08T17:00:42.571Z,-7.11
2023-01-08T17:03:09.364Z,-7.13
2023-01-08T17:05:36.411Z,-7.14
2023-01-08T17:08:03.367Z,-7.16
2023-01-08T17:10:30.193Z,-7.17
2023-01-08T17:12:57.368Z,-7.17
2023-01-08T17:15:24.411Z,-7.18
2023-01-08T17:17:51.346Z,-7.20
2023-01-08T17:20:20.253Z,-7.21
2023-01-08T17:22:47.179Z,-7.22
2023-01-08T17:25:14.232Z,-7.22
2023-01-08T17:27:42.391Z,-7.24
2023-01-08T17:30:11.185Z,-7.25
2023-01-08T17:32:38.665Z,-7.25
2023-01-08T17:35:06.382Z,-7.28
2023-01-08T17:37:33.693Z,-7.32
2023-01-08T17:40:03.689Z,-7.34
2023-01-08T17:42:30.577Z,-7.37
2023-01-08T17:45:00.489Z,-7.37
2023-01-08T17:47:28.195Z,-7.38
2023-01-08T17:49:56.577Z,-7.40
2023-01-08T17:52:24.787Z,-7.41
2023-01-08T17:54:52.989Z,-7.43
2023-01-08T17:57:20.569Z,-7.44
2023-01-08T17:59:47.745Z,-7.47
2023-01-08T18:02:16.166Z,-7.50
2023-01-08T18:04:45.627Z,-7.52
2023-01-08T18:07:12.988Z,-7.54
2023-01-08T18:09:40.602Z,-7.56
2023-01-08T18:12:08.789Z,-7.53
2023-01-08T18:14:38.015Z,-7.54
2023-01-08T18:17:05.991Z,-7.56
2023-01-08T18:19:33.116Z,-7.58
2023-01-08T18:22:01.229Z,-7.59
2023-01-08T18:24:28.248Z,-7.60
2023-01-08T18:26:55.389Z,-7.62
2023-01-08T18:29:22.667Z,-7.62
2023-01-08T18:31:49.880Z,-7.63
2023-01-08T18:34:17.085Z,-7.64
2023-01-08T18:36:44.174Z,-7.67
2023-01-08T18:39:14.646Z,-7.69
2023-01-08T18:42:00.214Z,-7.71
2023-01-08T18:44:27.496Z,-7.74
2023-01-08T18:46:55.001Z,-7.76
2023-01-08T18:49:23.920Z,-7.76
2023-01-08T18:51:50.915Z,-7.77
2023-01-08T18:54:18.125Z,-7.78
2023-01-08T18:56:46.765Z,-7.79
2023-01-08T18:59:14.027Z,-7.80
2023-01-08T19:01:42.130Z,-7.82
2023-01-08T19:04:14.399Z,-7.83
2023-01-08T19:06:41.416Z,-7.83
2023-01-08T19:09:08.597Z,-7.84
2023-01-08T19:11:36.174Z,-7.86
2023-01-08T19:14:03.677Z,-7.88
2023-01-08T19:16:31.128Z,-7.90
2023-01-08T19:18:59.118Z,-7.90
2023-01-08T19:21:26.461Z,-7.90
2023-01-08T19:23:53.852Z,-7.89
2023-01-08T19:26:21.207Z,-7.90
2023-01-08T19:28:48.285Z,-7.91
2023-01-08T19:31:17.723Z,-7.91
2023-01-08T19:33:48.717Z,-7.90
2023-01-08T19:36:16.756Z,-7.90
2023-01-08T19:38:45.079Z,-7.90
2023-01-08T19:41:31.662Z,-7.90
2023-01-08T19:43:58.762Z,-7.91
2023-01-08T19:52:58.386Z,-7.97
2023-01-08T19:55:25.644Z,-8.02
2023-01-08T19:57:54.623Z,-8.02
2023-01-08T20:00:24.612Z,-8.03
2023-01-08T20:02:51.779Z,-8.05
2023-01-08T20:05:19.012Z,-8.06
2023-01-08T20:07:46.478Z,-8.07
2023-01-08T20:10:13.803Z,-8.08
2023-01-08T20:12:40.743Z,-8.08
2023-01-08T20:15:09.258Z,-8.09
2023-01-08T20:17:36.397Z,-8.13
2023-01-08T20:20:03.950Z,-8.15
2023-01-08T20:22:31.722Z,-8.17
2023-01-08T20:24:59.199Z,-8.18
2023-01-08T20:27:26.429Z,-8.22
2023-01-08T20:29:53.423Z,-8.23
2023-01-08T20:32:23.223Z,-8.22
2023-01-08T20:34:50.664Z,-8.21
2023-01-08T20:37:17.745Z,-8.19
2023-01-08T20:39:45.059Z,-8.18
2023-01-08T20:42:14.597Z,-8.17
2023-01-08T20:44:44.430Z,-8.15
2023-01-08T20:47:11.620Z,-8.16
2023-01-08T20:49:38.667Z,-8.17
2023-01-08T20:52:07.026Z,-8.18
2023-01-08T20:54:34.124Z,-8.19
2023-01-08T20:57:01.589Z,-8.19
2023-01-08T20:59:28.825Z,-8.19
2023-01-08T21:01:57.434Z,-8.18
2023-01-08T21:04:24.748Z,-8.20
2023-01-08T21:06:52.000Z,-8.22
2023-01-08T21:09:19.050Z,-8.22
2023-01-08T21:11:46.199Z,-8.20
2023-01-08T21:14:14.161Z,-8.20
2023-01-08T21:16:42.751Z,-8.20
2023-01-08T21:19:10.601Z,-8.20
2023-01-08T21:21:39.974Z,-8.21
2023-01-08T21:24:09.151Z,-8.20
2023-01-08T21:26:37.698Z,-8.21
2023-01-08T21:29:06.577Z,-8.23
2023-01-08T21:31:34.331Z,-8.25
2023-01-08T21:34:01.966Z,-8.26
2023-01-08T21:36:29.574Z,-8.28
2023-01-08T21:38:57.648Z,-8.28
2023-01-08T21:41:44.257Z,-8.28
2023-01-08T21:44:33.246Z,-8.26
2023-01-08T21:47:00.701Z,-8.26
2023-01-08T21:49:27.688Z,-8.27
2023-01-08T21:52:13.622Z,-8.27
2023-01-08T21:54:41.262Z,-8.26
2023-01-08T21:57:08.633Z,-8.24
2023-01-08T21:59:35.860Z,-8.23
2023-01-08T22:02:03.059Z,-8.23
2023-01-08T22:04:30.172Z,-8.23
2023-01-08T22:06:58.581Z,-8.21
2023-01-08T22:09:28.035Z,-8.20
2023-01-08T22:11:56.292Z,-8.19
2023-01-08T22:14:23.702Z,-8.20
2023-01-08T22:16:50.647Z,-8.20
2023-01-08T22:19:36.097Z,-8.17
2023-01-08T22:22:03.183Z,-8.19
2023-01-08T22:24:30.764Z,-8.20
2023-01-08T22:33:26.823Z,-8.21
2023-01-08T22:35:56.349Z,-8.22
2023-01-08T22:38:24.068Z,-8.21
2023-01-08T22:40:51.022Z,-8.22
2023-01-08T22:43:18.120Z,-8.23
2023-01-08T22:45:54.517Z,-8.24
2023-01-08T22:48:21.528Z,-8.27
2023-01-08T22:50:48.824Z,-8.27
2023-01-08T22:53:16.292Z,-8.26
2023-01-08T22:55:43.955Z,-8.23
2023-01-08T22:58:11.540Z,-8.22
2023-01-08T23:00:38.864Z,-8.22
2023-01-08T23:03:06.317Z,-8.25
2023-01-08T23:05:35.376Z,-8.25
2023-01-08T23:08:02.353Z,-8.24
2023-01-08T23:10:33.626Z,-8.25
2023-01-08T23:13:02.516Z,-8.26
2023-01-08T23:15:30.548Z,-8.27
2023-01-08T23:17:57.653Z,-8.26
2023-01-08T23:20:25.393Z,-8.24
2023-01-08T23:22:52.530Z,-8.22
2023-01-08T23:25:20.160Z,-8.18
2023-01-08T23:27:47.271Z,-8.16
2023-01-08T23:30:14.608Z,-8.15
2023-01-08T23:32:41.979Z,-8.16
2023-01-08T23:35:10.209Z,-8.16
2023-01-08T23:37:37.273Z,-8.17
2023-01-08T23:40:09.494Z,-8.17
2023-01-08T23:42:36.989Z,-8.14
2023-01-08T23:45:05.884Z,-8.13
2023-01-08T23:47:33.211Z,-8.12
2023-01-08T23:50:00.284Z,-8.10
2023-01-08T23:52:27.349Z,-8.09
2023-01-08T23:54:57.882Z,-8.08
2023-01-08T23:57:25.922Z,-8.07
2023-01-08T23:59:55.335Z,-8.06
